createdAt,value
2018-06-24T00:02:27.049Z,98989.27
2018-06-24T00:04:55.371Z,98986.38
2018-06-24T00:07:23.750Z,98989.58
2018-06-24T00:09:52.120Z,98982.64
2018-06-24T00:12:20.603Z,98981.16
2018-06-24T00:14:48.945Z,98977.20
2018-06-24T00:17:17.284Z,98972.75
2018-06-24T00:19:45.575Z,98965.53
2018-06-24T00:22:13.873Z,98969.36
2018-06-24T00:24:42.218Z,98964.83
2018-06-24T00:27:10.732Z,98966.94
2018-06-24T00:29:39.021Z,98965.47
2018-06-24T00:32:07.314Z,98965.03
2018-06-24T00:34:35.666Z,98961.06
2018-06-24T00:37:03.996Z,98967.83
2018-06-24T00:39:32.312Z,98960.14
2018-06-24T00:42:00.624Z,98959.37
2018-06-24T00:44:29.011Z,98959.72
2018-06-24T00:46:57.350Z,98955.59
2018-06-24T00:49:25.639Z,98950.13
2018-06-24T00:51:53.984Z,98945.38
2018-06-24T00:54:22.350Z,98941.78
2018-06-24T00:56:50.663Z,98940.91
2018-06-24T00:59:30.170Z,98939.45
2018-06-24T01:01:58.512Z,98939.61
2018-06-24T01:04:26.817Z,98943.56
2018-06-24T01:06:55.134Z,98939.78
2018-06-24T01:09:23.458Z,98952.01
2018-06-24T01:11:51.789Z,98942.77
2018-06-24T01:14:20.077Z,98937.75
2018-06-24T01:16:48.517Z,98941.27
2018-06-24T01:19:16.886Z,98941.87
2018-06-24T01:21:45.261Z,98931.94
2018-06-24T01:24:13.583Z,98932.00
2018-06-24T01:26:41.826Z,98935.62
2018-06-24T01:29:10.277Z,98935.85
2018-06-24T01:31:38.575Z,98934.86
2018-06-24T01:34:06.876Z,98927.51
2018-06-24T01:36:35.211Z,98930.92
2018-06-24T01:39:03.855Z,98930.04
2018-06-24T01:41:32.177Z,98927.81
2018-06-24T01:44:00.478Z,98933.69
2018-06-24T01:46:28.815Z,98922.80
2018-06-24T01:48:57.122Z,98912.34
2018-06-24T01:51:25.427Z,98911.13
2018-06-24T01:53:53.818Z,98914.35
2018-06-24T01:56:22.172Z,98910.46
2018-06-24T01:58:50.531Z,98909.84
2018-06-24T02:01:18.909Z,98914.88
2018-06-24T02:03:47.315Z,98909.09
2018-06-24T02:06:15.662Z,98906.64
2018-06-24T02:08:43.995Z,98905.11
2018-06-24T02:11:12.330Z,98910.34
2018-06-24T02:13:40.660Z,98907.18
2018-06-24T02:16:08.972Z,98907.34
2018-06-24T02:18:37.353Z,98900.08
2018-06-24T02:21:05.764Z,98896.99
2018-06-24T02:23:34.066Z,98896.84
2018-06-24T02:26:02.388Z,98896.21
2018-06-24T02:28:30.700Z,98895.17
2018-06-24T02:30:58.971Z,98900.72
2018-06-24T02:33:27.258Z,98895.81
2018-06-24T02:35:55.659Z,98889.91
2018-06-24T02:38:24.007Z,98885.27
2018-06-24T02:40:52.340Z,98886.31
2018-06-24T02:43:20.705Z,98886.94
2018-06-24T02:45:49.055Z,98886.63
2018-06-24T02:48:17.426Z,98885.99
2018-06-24T02:50:45.758Z,98880.48
2018-06-24T02:53:14.119Z,98879.80
2018-06-24T02:55:42.420Z,98877.39
2018-06-24T02:58:10.743Z,98870.02
2018-06-24T03:00:39.102Z,98873.72
2018-06-24T03:03:07.427Z,98872.39
2018-06-24T03:05:35.934Z,98863.70
2018-06-24T03:08:04.246Z,98864.71
2018-06-24T03:10:32.506Z,98859.89
2018-06-24T03:13:01.040Z,98861.53
2018-06-24T03:15:29.417Z,98869.76
2018-06-24T03:17:57.701Z,98870.30
2018-06-24T03:20:26.060Z,98874.26
2018-06-24T03:22:54.413Z,98879.48
2018-06-24T03:25:22.736Z,98868.84
2018-06-24T03:27:51.061Z,98872.92
2018-06-24T03:30:19.365Z,98876.30
2018-06-24T03:32:47.827Z,98877.49
2018-06-24T03:35:16.095Z,98872.03
2018-06-24T03:37:44.382Z,98875.13
2018-06-24T03:40:12.693Z,98874.94
2018-06-24T03:42:40.993Z,98872.71
2018-06-24T03:45:09.312Z,98873.22
2018-06-24T03:47:37.630Z,98875.40
2018-06-24T03:50:06.042Z,98872.89
2018-06-24T03:52:34.337Z,98874.06
2018-06-24T03:55:02.722Z,98873.90
2018-06-24T03:57:31.035Z,98866.80
2018-06-24T03:59:59.389Z,98870.36
2018-06-24T04:02:27.778Z,98862.70
2018-06-24T04:04:56.136Z,98866.95
2018-06-24T04:07:24.466Z,98864.48
2018-06-24T04:09:52.741Z,98863.50
2018-06-24T04:12:22.275Z,98873.47
2018-06-24T04:14:50.756Z,98872.81
2018-06-24T04:17:19.096Z,98872.78
2018-06-24T04:19:47.518Z,98872.16
2018-06-24T04:22:15.841Z,98873.53
2018-06-24T04:24:44.198Z,98879.42
2018-06-24T04:27:12.469Z,98875.05
2018-06-24T04:29:40.812Z,98882.94
2018-06-24T04:32:09.107Z,98878.96
2018-06-24T04:34:37.398Z,98880.77
2018-06-24T04:37:05.990Z,98884.57
2018-06-24T04:39:34.260Z,98882.20
2018-06-24T04:42:02.661Z,98886.64
2018-06-24T04:44:30.985Z,98885.39
2018-06-24T04:46:59.355Z,98886.19
2018-06-24T04:49:27.675Z,98886.34
2018-06-24T04:51:55.948Z,98888.03
2018-06-24T04:54:24.296Z,98890.21
2018-06-24T04:56:52.604Z,98890.42
2018-06-24T04:59:20.906Z,98889.35
2018-06-24T05:01:49.204Z,98890.73
2018-06-24T05:04:17.524Z,98889.56
2018-06-24T05:06:45.820Z,98889.28
2018-06-24T05:09:14.131Z,98896.60
2018-06-24T05:11:42.444Z,98887.44
2018-06-24T05:14:10.740Z,98892.77
2018-06-24T05:16:39.096Z,98890.51
2018-06-24T05:19:07.385Z,98891.16
2018-06-24T05:21:35.765Z,98884.95
2018-06-24T05:24:04.039Z,98882.48
2018-06-24T05:26:32.359Z,98886.59
2018-06-24T05:29:00.728Z,98879.12
2018-06-24T05:31:29.054Z,98881.56
2018-06-24T05:33:57.365Z,98884.89
2018-06-24T05:36:25.648Z,98883.44
2018-06-24T05:38:53.998Z,98875.55
2018-06-24T05:41:22.316Z,98873.83
2018-06-24T05:43:50.742Z,98878.66
2018-06-24T05:46:19.182Z,98881.05
2018-06-24T05:48:47.571Z,98873.30
2018-06-24T05:51:15.884Z,98878.31
2018-06-24T05:53:44.309Z,98875.56
2018-06-24T05:56:12.692Z,98868.54
2018-06-24T05:58:41.069Z,98874.74
2018-06-24T06:01:09.438Z,98873.00
2018-06-24T06:03:37.937Z,98872.73
2018-06-24T06:06:06.317Z,98883.72
2018-06-24T06:08:34.837Z,98877.40
2018-06-24T06:11:05.535Z,98874.97
2018-06-24T06:13:33.838Z,98870.53
2018-06-24T06:16:02.229Z,98877.39
2018-06-24T06:18:30.653Z,98873.73
2018-06-24T06:20:58.943Z,98880.52
2018-06-24T06:23:27.301Z,98889.44
2018-06-24T06:25:55.622Z,98881.84
2018-06-24T06:28:23.923Z,98882.97
2018-06-24T06:30:52.356Z,98880.80
2018-06-24T06:33:20.674Z,98890.16
2018-06-24T06:35:49.052Z,98891.12
2018-06-24T06:38:17.363Z,98886.06
2018-06-24T06:40:45.720Z,98885.81
2018-06-24T06:43:14.006Z,98886.83
2018-06-24T06:45:42.533Z,98880.20
2018-06-24T06:48:10.789Z,98882.84
2018-06-24T06:50:39.272Z,98879.86
2018-06-24T06:53:07.697Z,98884.44
2018-06-24T06:55:36.036Z,98882.60
2018-06-24T06:58:04.407Z,98887.30
2018-06-24T07:00:32.748Z,98885.07
2018-06-24T07:03:01.245Z,98884.36
2018-06-24T07:05:29.589Z,98886.08
2018-06-24T07:07:57.994Z,98881.75
2018-06-24T07:10:26.890Z,98879.03
2018-06-24T07:12:55.496Z,98880.49
2018-06-24T07:15:23.763Z,98868.30
2018-06-24T07:17:52.124Z,98874.41
2018-06-24T07:20:20.466Z,98878.14
2018-06-24T07:22:48.764Z,98876.28
2018-06-24T07:25:17.160Z,98879.33
2018-06-24T07:27:45.421Z,98866.16
2018-06-24T07:30:13.848Z,98861.31
2018-06-24T07:32:42.366Z,98860.95
2018-06-24T07:35:10.667Z,98868.43
2018-06-24T07:37:39.023Z,98862.01
2018-06-24T07:40:07.340Z,98857.72
2018-06-24T07:42:35.628Z,98859.50
2018-06-24T07:45:04.067Z,98865.18
2018-06-24T07:47:32.379Z,98852.48
2018-06-24T07:50:00.707Z,98853.85
2018-06-24T07:52:29.370Z,98856.16
2018-06-24T07:55:06.682Z,98850.93
2018-06-24T07:57:35.025Z,98851.79
2018-06-24T08:00:03.656Z,98850.93
2018-06-24T08:02:31.969Z,98849.66
2018-06-24T08:05:00.329Z,98848.84
2018-06-24T08:07:28.788Z,98846.25
2018-06-24T08:09:57.260Z,98847.45
2018-06-24T08:12:25.603Z,98840.52
2018-06-24T08:14:53.932Z,98850.22
2018-06-24T08:17:22.362Z,98845.38
2018-06-24T08:19:50.687Z,98838.39
2018-06-24T08:22:18.962Z,98850.11
2018-06-24T08:24:47.260Z,98848.92
2018-06-24T08:27:15.748Z,98841.16
2018-06-24T08:29:44.184Z,98845.14
2018-06-24T08:32:12.476Z,98830.77
2018-06-24T08:34:40.867Z,98832.77
2018-06-24T08:37:09.273Z,98840.42
2018-06-24T08:39:37.705Z,98833.08
2018-06-24T08:42:06.103Z,98836.97
2018-06-24T08:44:35.774Z,98834.63
2018-06-24T08:47:04.933Z,98835.55
2018-06-24T08:49:33.405Z,98837.20
2018-06-24T08:52:01.827Z,98839.86
2018-06-24T08:54:30.651Z,98840.48
2018-06-24T08:56:59.091Z,98849.27
2018-06-24T08:59:27.357Z,98842.27
2018-06-24T09:01:55.795Z,98844.39
2018-06-24T09:04:24.157Z,98848.35
2018-06-24T09:06:52.473Z,98839.09
2018-06-24T09:09:20.845Z,98841.50
2018-06-24T09:11:49.312Z,98839.34
2018-06-24T09:17:25.608Z,98827.92
2018-06-24T09:19:54.081Z,98827.06
2018-06-24T09:22:22.426Z,98835.95
2018-06-24T09:24:51.226Z,98822.86
2018-06-24T09:27:19.749Z,98829.44
2018-06-24T09:29:48.357Z,98825.09
2018-06-24T09:32:17.017Z,98823.03
2018-06-24T09:34:45.622Z,98823.96
2018-06-24T09:37:15.186Z,98825.58
2018-06-24T09:39:43.564Z,98816.94
2018-06-24T09:42:12.057Z,98824.33
2018-06-24T09:44:40.493Z,98818.56
2018-06-24T09:47:08.824Z,98816.11
2018-06-24T09:49:37.270Z,98812.45
2018-06-24T09:52:05.755Z,98819.09
2018-06-24T09:54:34.236Z,98819.42
2018-06-24T09:57:03.346Z,98821.23
2018-06-24T09:59:32.076Z,98819.84
2018-06-24T10:02:00.685Z,98820.07
2018-06-24T10:04:29.067Z,98813.67
2018-06-24T10:06:57.570Z,98808.80
2018-06-24T10:09:25.890Z,98807.88
2018-06-24T10:11:54.299Z,98802.31
2018-06-24T10:14:22.822Z,98797.28
2018-06-24T10:16:51.387Z,98799.88
2018-06-24T10:19:19.777Z,98798.08
2018-06-24T10:21:48.249Z,98797.69
2018-06-24T10:24:17.098Z,98800.66
2018-06-24T10:26:45.481Z,98797.25
2018-06-24T10:29:13.779Z,98791.25
2018-06-24T10:31:42.127Z,98800.00
2018-06-24T10:34:10.525Z,98795.08
2018-06-24T10:36:39.032Z,98793.64
2018-06-24T10:39:09.201Z,98787.85
2018-06-24T10:41:37.729Z,98792.05
2018-06-24T10:44:06.620Z,98791.33
2018-06-24T10:46:35.263Z,98787.02
2018-06-24T10:49:03.697Z,98783.02
2018-06-24T10:51:33.409Z,98780.65
2018-06-24T10:54:02.011Z,98785.55
2018-06-24T10:56:30.465Z,98786.44
2018-06-24T10:58:58.917Z,98782.36
2018-06-24T11:01:27.531Z,98783.14
2018-06-24T11:03:56.222Z,98775.53
2018-06-24T11:06:24.732Z,98773.18
2018-06-24T11:08:53.111Z,98775.83
2018-06-24T11:11:21.678Z,98788.59
2018-06-24T11:13:50.197Z,98785.25
2018-06-24T11:16:18.882Z,98787.17
2018-06-24T11:18:47.367Z,98782.20
2018-06-24T11:21:15.814Z,98784.44
2018-06-24T11:23:44.164Z,98785.28
2018-06-24T11:26:12.622Z,98785.97
2018-06-24T11:28:40.979Z,98783.57
2018-06-24T11:31:09.710Z,98785.20
2018-06-24T11:33:38.040Z,98778.70
2018-06-24T11:36:06.429Z,98778.67
2018-06-24T11:38:34.737Z,98778.09
2018-06-24T11:41:03.020Z,98781.37
2018-06-24T11:43:31.426Z,98784.27
2018-06-24T11:45:59.922Z,98782.37
2018-06-24T11:48:28.294Z,98780.95
2018-06-24T11:50:56.664Z,98778.26
2018-06-24T11:53:25.025Z,98776.13
2018-06-24T11:55:54.877Z,98774.61
2018-06-24T11:58:23.534Z,98772.30
2018-06-24T12:00:52.016Z,98775.84
2018-06-24T12:03:20.464Z,98768.15
2018-06-24T12:05:48.978Z,98771.75
2018-06-24T12:08:17.675Z,98768.30
2018-06-24T12:10:46.120Z,98760.01
2018-06-24T12:13:14.481Z,98767.94
2018-06-24T12:15:42.831Z,98761.52
2018-06-24T12:18:11.267Z,98762.88
2018-06-24T12:20:40.112Z,98759.58
2018-06-24T12:23:12.242Z,98761.34
2018-06-24T12:25:41.152Z,98761.46
2018-06-24T12:28:09.701Z,98763.75
2018-06-24T12:30:39.147Z,98761.72
2018-06-24T12:33:09.139Z,98755.64
2018-06-24T12:35:37.543Z,98751.02
2018-06-24T12:38:06.438Z,98749.89
2018-06-24T12:40:34.948Z,98755.58
2018-06-24T12:43:04.305Z,98756.81
2018-06-24T12:45:33.112Z,98762.19
2018-06-24T12:48:01.679Z,98756.31
2018-06-24T12:50:30.198Z,98760.91
2018-06-24T12:52:58.773Z,98754.91
2018-06-24T12:55:27.289Z,98757.06
2018-06-24T12:57:56.000Z,98749.23
2018-06-24T13:00:25.134Z,98745.84
2018-06-24T13:02:53.112Z,98744.30
2018-06-24T13:05:21.565Z,98742.62
2018-06-24T13:07:49.939Z,98741.05
2018-06-24T13:10:18.393Z,98738.22
2018-06-24T13:12:46.731Z,98746.50
2018-06-24T13:15:15.130Z,98736.75
2018-06-24T13:17:43.497Z,98731.31
2018-06-24T13:20:11.814Z,98735.61
2018-06-24T13:22:40.302Z,98727.76
2018-06-24T13:25:08.777Z,98726.52
2018-06-24T13:27:37.217Z,98731.56
2018-06-24T13:30:05.735Z,98719.53
2018-06-24T13:32:34.072Z,98723.42
2018-06-24T13:35:02.493Z,98709.95
2018-06-24T13:37:30.851Z,98715.02
2018-06-24T13:39:59.196Z,98710.88
2018-06-24T13:42:27.552Z,98718.38
2018-06-24T13:44:55.918Z,98710.12
2018-06-24T13:47:24.200Z,98707.48
2018-06-24T13:49:52.587Z,98707.45
2018-06-24T13:52:21.065Z,98711.13
2018-06-24T13:54:49.730Z,98711.85
2018-06-24T13:57:18.079Z,98704.66
2018-06-24T13:59:46.337Z,98701.25
2018-06-24T14:02:14.672Z,98713.40
2018-06-24T14:04:43.051Z,98702.27
2018-06-24T14:07:11.451Z,98700.88
2018-06-24T14:09:39.885Z,98709.12
2018-06-24T14:12:08.269Z,98707.73
2018-06-24T14:14:36.631Z,98712.13
2018-06-24T14:17:05.103Z,98701.13
2018-06-24T14:19:33.407Z,98701.86
2018-06-24T14:22:01.876Z,98695.28
2018-06-24T14:24:30.311Z,98701.34
2018-06-24T14:26:58.721Z,98689.59
2018-06-24T14:29:27.002Z,98694.30
2018-06-24T14:31:55.365Z,98692.91
2018-06-24T14:34:23.702Z,98699.09
2018-06-24T14:36:52.122Z,98690.98
2018-06-24T14:39:20.694Z,98692.06
2018-06-24T14:41:49.267Z,98692.08
2018-06-24T14:44:17.855Z,98689.10
2018-06-24T14:46:46.174Z,98685.44
2018-06-24T14:49:14.473Z,98688.66
2018-06-24T14:51:42.892Z,98690.41
2018-06-24T14:54:11.233Z,98684.26
2018-06-24T14:56:39.726Z,98688.36
2018-06-24T14:59:08.109Z,98687.33
2018-06-24T15:01:36.502Z,98681.21
2018-06-24T15:04:04.861Z,98674.00
2018-06-24T15:06:33.316Z,98669.76
2018-06-24T15:09:01.728Z,98678.03
2018-06-24T15:11:30.067Z,98673.95
2018-06-24T15:13:58.420Z,98678.56
2018-06-24T15:16:26.723Z,98673.67
2018-06-24T15:18:55.194Z,98673.00
2018-06-24T15:21:23.647Z,98666.91
2018-06-24T15:23:51.984Z,98672.80
2018-06-24T15:26:20.413Z,98671.27
2018-06-24T15:28:48.824Z,98670.03
2018-06-24T15:31:17.179Z,98662.50
2018-06-24T15:33:45.943Z,98663.22
2018-06-24T15:36:14.251Z,98656.50
2018-06-24T15:38:42.898Z,98656.96
2018-06-24T15:41:11.286Z,98651.45
2018-06-24T15:43:39.653Z,98654.27
2018-06-24T15:46:08.080Z,98658.02
2018-06-24T15:48:36.636Z,98656.56
2018-06-24T15:51:05.027Z,98652.41
2018-06-24T15:53:33.469Z,98646.32
2018-06-24T15:56:01.717Z,98647.79
2018-06-24T15:58:30.088Z,98642.77
2018-06-24T16:00:58.482Z,98638.80
2018-06-24T16:03:26.793Z,98637.02
2018-06-24T16:05:55.146Z,98631.77
2018-06-24T16:08:23.612Z,98631.66
2018-06-24T16:10:51.983Z,98628.16
2018-06-24T16:13:20.315Z,98640.67
2018-06-24T16:15:48.860Z,98634.02
2018-06-24T16:18:17.138Z,98641.96
2018-06-24T16:20:45.724Z,98639.67
2018-06-24T16:23:14.009Z,98634.28
2018-06-24T16:25:42.392Z,98640.34
2018-06-24T16:28:10.749Z,98634.64
2018-06-24T16:30:39.105Z,98632.04
2018-06-24T16:33:07.433Z,98636.19
2018-06-24T16:35:35.803Z,98626.08
2018-06-24T16:38:04.318Z,98625.45
2018-06-24T16:40:32.872Z,98619.52
2018-06-24T16:43:01.231Z,98624.58
2018-06-24T16:45:29.634Z,98622.02
2018-06-24T16:47:58.100Z,98623.18
2018-06-24T16:50:26.430Z,98615.84
2018-06-24T16:52:54.835Z,98610.05
2018-06-24T16:55:23.191Z,98616.86
2018-06-24T16:57:51.719Z,98617.94
2018-06-24T17:00:20.175Z,98621.20
2018-06-24T17:02:48.516Z,98622.69
2018-06-24T17:05:16.849Z,98618.95
2018-06-24T17:07:45.236Z,98616.19
2018-06-24T17:10:13.680Z,98622.50
2018-06-24T17:12:42.102Z,98617.41
2018-06-24T17:15:10.504Z,98617.75
2018-06-24T17:17:39.060Z,98617.27
2018-06-24T17:20:07.585Z,98625.00
2018-06-24T17:22:36.070Z,98624.49
2018-06-24T17:25:04.513Z,98625.95
2018-06-24T17:27:32.841Z,98624.39
2018-06-24T17:30:01.204Z,98624.97
2018-06-24T17:32:29.609Z,98626.53
2018-06-24T17:34:57.990Z,98625.72
2018-06-24T17:37:26.349Z,98622.55
2018-06-24T17:39:54.693Z,98619.45
2018-06-24T17:42:23.084Z,98617.05
2018-06-24T17:44:51.537Z,98615.07
2018-06-24T17:47:20.015Z,98620.55
2018-06-24T17:49:48.380Z,98617.05
2018-06-24T17:52:16.929Z,98614.61
2018-06-24T17:54:45.360Z,98616.76
2018-06-24T17:57:13.705Z,98612.73
2018-06-24T17:59:42.112Z,98616.99
2018-06-24T18:02:10.436Z,98614.42
2018-06-24T18:04:38.864Z,98605.64
2018-06-24T18:07:07.326Z,98613.20
2018-06-24T18:09:35.696Z,98605.70
2018-06-24T18:12:04.297Z,98614.77
2018-06-24T18:14:32.805Z,98610.67
2018-06-24T18:17:01.259Z,98616.77
2018-06-24T18:19:29.705Z,98620.92
2018-06-24T18:21:58.206Z,98613.91
2018-06-24T18:24:26.554Z,98612.88
2018-06-24T18:26:54.933Z,98617.38
2018-06-24T18:29:29.778Z,98622.66
2018-06-24T18:31:58.227Z,98625.59
2018-06-24T18:34:26.646Z,98624.67
2018-06-24T18:36:55.110Z,98625.41
2018-06-24T18:39:23.527Z,98620.70
2018-06-24T18:41:51.993Z,98630.66
2018-06-24T18:44:20.430Z,98629.09
2018-06-24T18:46:48.854Z,98624.45
2018-06-24T18:49:17.253Z,98628.47
2018-06-24T18:51:45.555Z,98630.71
2018-06-24T18:54:13.934Z,98634.23
2018-06-24T18:56:42.283Z,98631.33
2018-06-24T18:59:10.797Z,98636.05
2018-06-24T19:01:39.140Z,98633.23
2018-06-24T19:04:07.589Z,98628.13
2018-06-24T19:06:36.245Z,98627.50
2018-06-24T19:09:07.514Z,98627.65
2018-06-24T19:11:35.853Z,98635.18
2018-06-24T19:14:05.521Z,98634.55
2018-06-24T19:16:33.922Z,98626.23
2018-06-24T19:19:02.260Z,98635.27
2018-06-24T19:21:30.636Z,98626.75
2018-06-24T19:23:59.933Z,98629.55
2018-06-24T19:26:28.289Z,98633.20
2018-06-24T19:28:56.667Z,98633.66
2018-06-24T19:31:25.039Z,98637.89
2018-06-24T19:33:53.460Z,98628.52
2018-06-24T19:36:21.907Z,98632.33
2018-06-24T19:38:50.313Z,98636.42
2018-06-24T19:41:18.637Z,98634.98
2018-06-24T19:43:46.939Z,98637.89
2018-06-24T19:46:15.302Z,98639.39
2018-06-24T19:48:43.741Z,98636.49
2018-06-24T19:51:12.322Z,98643.36
2018-06-24T19:53:40.777Z,98645.92
2018-06-24T19:56:09.180Z,98645.92
2018-06-24T19:58:38.878Z,98650.90
2018-06-24T20:01:07.381Z,98656.09
2018-06-24T20:03:35.823Z,98651.03
2018-06-24T20:06:04.219Z,98655.73
2018-06-24T20:08:32.558Z,98665.06
2018-06-24T20:11:00.901Z,98658.40
2018-06-24T20:13:29.238Z,98659.02
2018-06-24T20:15:59.353Z,98649.21
2018-06-24T20:18:29.197Z,98661.92
2018-06-24T20:20:57.631Z,98666.87
2018-06-24T20:23:26.217Z,98659.86
2018-06-24T20:25:54.754Z,98663.85
2018-06-24T20:28:23.150Z,98657.42
2018-06-24T20:30:51.467Z,98662.16
2018-06-24T20:33:20.916Z,98660.44
2018-06-24T20:35:49.394Z,98662.29
2018-06-24T20:38:17.828Z,98661.91
2018-06-24T20:40:46.166Z,98662.27
2018-06-24T20:43:42.553Z,98661.19
2018-06-24T20:46:31.405Z,98666.36
2018-06-24T20:48:59.762Z,98662.86
2018-06-24T20:51:28.115Z,98669.88
2018-06-24T20:53:56.471Z,98664.18
2018-06-24T20:56:24.959Z,98671.03
2018-06-24T20:58:53.329Z,98669.83
2018-06-24T21:01:23.363Z,98669.27
2018-06-24T21:03:51.827Z,98684.92
2018-06-24T21:06:20.285Z,98675.42
2018-06-24T21:08:48.622Z,98679.55
2018-06-24T21:11:17.229Z,98678.52
2018-06-24T21:13:45.585Z,98686.23
2018-06-24T21:16:14.168Z,98676.16
2018-06-24T21:18:46.070Z,98682.71
2018-06-24T21:21:14.441Z,98688.09
2018-06-24T21:23:42.724Z,98687.44
2018-06-24T21:26:11.249Z,98684.91
2018-06-24T21:28:39.723Z,98682.46
2018-06-24T21:31:08.761Z,98691.75
2018-06-24T21:33:37.105Z,98690.50
2018-06-24T21:36:05.471Z,98691.33
2018-06-24T21:38:33.806Z,98689.48
2018-06-24T21:41:03.517Z,98690.72
2018-06-24T21:43:31.977Z,98684.29
2018-06-24T21:46:00.697Z,98695.58
2018-06-24T21:48:29.145Z,98696.27
2018-06-24T21:50:57.517Z,98684.33
2018-06-24T21:53:25.843Z,98682.69
2018-06-24T21:55:54.299Z,98680.88
2018-06-24T21:58:22.847Z,98680.08
2018-06-24T22:00:51.249Z,98690.98
2018-06-24T22:03:19.876Z,98693.08
2018-06-24T22:05:48.385Z,98697.16
2018-06-24T22:08:16.775Z,98692.78
2018-06-24T22:10:45.273Z,98695.70
2018-06-24T22:13:13.911Z,98699.53
2018-06-24T22:15:42.916Z,98697.16
2018-06-24T22:18:11.725Z,98701.28
2018-06-24T22:20:40.080Z,98697.38
2018-06-24T22:23:08.398Z,98701.50
2018-06-24T22:25:36.957Z,98695.14
2018-06-24T22:28:05.431Z,98708.06
2018-06-24T22:30:33.815Z,98706.82
2018-06-24T22:33:02.190Z,98706.87
2018-06-24T22:35:30.603Z,98707.88
2018-06-24T22:37:59.057Z,98707.16
2018-06-24T22:40:27.509Z,98710.67
2018-06-24T22:42:56.090Z,98709.39
2018-06-24T22:45:24.539Z,98710.61
2018-06-24T22:47:54.140Z,98715.13
2018-06-24T22:50:22.500Z,98718.20
2018-06-24T22:52:50.913Z,98720.31
2018-06-24T22:55:19.274Z,98726.70
2018-06-24T22:57:47.645Z,98723.10
2018-06-24T23:00:18.036Z,98724.36
2018-06-24T23:02:46.856Z,98727.36
2018-06-24T23:05:15.556Z,98728.03
2018-06-24T23:07:45.252Z,98732.62
2018-06-24T23:10:14.237Z,98728.57
2018-06-24T23:12:43.228Z,98734.69
2018-06-24T23:15:12.002Z,98738.67
2018-06-24T23:17:41.196Z,98736.20
2018-06-24T23:20:10.036Z,98740.00
2018-06-24T23:22:38.494Z,98738.65
2018-06-24T23:25:07.420Z,98744.31
2018-06-24T23:27:35.877Z,98730.33
2018-06-24T23:30:05.393Z,98736.75
2018-06-24T23:32:35.371Z,98738.77
2018-06-24T23:35:03.873Z,98740.47
2018-06-24T23:37:32.741Z,98748.33
2018-06-24T23:40:01.299Z,98740.15
2018-06-24T23:42:29.883Z,98726.59
2018-06-24T23:44:58.424Z,98736.44
2018-06-24T23:47:26.860Z,98728.28
2018-06-24T23:49:55.506Z,98720.58
2018-06-24T23:52:23.819Z,98726.48
2018-06-24T23:54:52.225Z,98732.03
2018-06-24T23:57:20.791Z,98730.79
2018-06-24T23:59:49.212Z,98739.40
